Airfield :
LOGIN :

Register | Disclaimer

   EN    FR    IT 

 










Legend :    VFR   Marginal VFR   IFR   Intensive IFR   Very Intensive IFR
Visi :
Ceiling :
>= 8 km
>= 3000ft
5 to 8 km
1000 to 3000 ft
1500m to 5 km
500 to 1000 ft
800 to 1500m
200 to 500 ft
< 800m
< 200 ft
Symbols :   Thunderstorms  Fog  Heavy snow  Heavy precipitations  Wind > 20 kt
SIGMETs :     Misc.  Thunderstorms  Icing  Turbulence  Mountain Waves  Volcanic Ashes






- Airport Elevation : 63 ft
- IATA code : BZM


EHWO - Woensdrecht Airbase

CURRENT METAR :
  • 260225Z AUTO 32006KT 260V360 4000 SHSNRA FEW005 SCT007 BKN008 FEW015CB 01/00 Q0993 GRN

EXPIRED METARs :
  • 260209Z AUTO 26015KT 250V360 5000 RA BKN006 BKN007 SCT015CB 02/01 Q0993 YLO
  • 260201Z AUTO 26013KT 250V340 4500 -RA BKN007 BKN008 SCT015CB 03/02 Q0993 GRN
  • 260146Z AUTO 25008KT 240V320 9999 SCT006 BKN009 BKN011 FEW015CB 02/01 Q0993 YLO
  • 260135Z AUTO 25008KT 9999 FEW007 SCT012 BKN017 02/01 Q0993 GRN
  • 260134Z AUTO 25008KT 9999 FEW007 BKN017 BKN020 01/01 Q0993 WHT
  • 260109Z AUTO 26010KT 9000 -SNRA SCT005 BKN006 BKN007 01/00 Q0993 YLO
  • 260056Z AUTO 26011KT 4400 SN SCT004 BKN005 OVC006 01/00 Q0993 YLO
  • 260055Z AUTO 26011KT 3000 -SN SCT003 BKN005 OVC006 01/00 Q0993 RESN YLO
  • 260025Z AUTO 25012KT 220V290 4100 SNRA FEW004 BKN005 BKN006 01/00 Q0993 YLO
  • 252355Z AUTO 28013KT 220V340 9999 -SHRA BKN006 OVC010 02/01 Q0992 YLO
  • 252346Z AUTO 28013KT 230V340 9999 -SHRA SCT007/// BKN008/// BKN009/// FEW015CB 02/01 Q0992 GRN
  • 252331Z AUTO 27015KT 230V310 9999 -SHRA FEW006 SCT008 BKN010 03/02 Q0992 GRN

Expired Forecast.



MET'MAP, your aeronautical weather chart ! - Copyright ORBIFLY December 2007 - Disclaimer

ORBIFLY MET'MAP TEAM :

Programming & Development : Alexandra Zaïnal
Concept & original design : Baudouin d'Aumeries
Assistance for programming : Marc-Olivier Méhu
Technical & hardware support : Manuel Goepfert

Contact : metmap@orbifly.com




SOURCES & CREDITS :

   NOAA